createdAt,value
2022-08-16T00:01:09.740Z,100.00
2022-08-16T00:03:59.299Z,100.00
2022-08-16T00:06:47.637Z,100.00
2022-08-16T00:09:38.198Z,100.00
2022-08-16T00:12:31.923Z,100.00
2022-08-16T00:15:24.241Z,100.00
2022-08-16T00:18:14.492Z,100.00
2022-08-16T00:21:03.884Z,100.00
2022-08-16T00:23:52.143Z,100.00
2022-08-16T00:26:44.951Z,100.00
2022-08-16T00:29:34.122Z,100.00
2022-08-16T00:32:22.654Z,100.00
2022-08-16T00:35:15.893Z,100.00
2022-08-16T00:38:40.572Z,100.00
2022-08-16T00:41:14.841Z,100.00
2022-08-16T00:44:10.590Z,100.00
2022-08-16T00:47:06.228Z,100.00
2022-08-16T00:49:56.648Z,100.00
2022-08-16T00:52:50.589Z,100.00
2022-08-16T00:55:43.032Z,100.00
2022-08-16T00:58:34.977Z,100.00
2022-08-16T01:01:24.446Z,100.00
2022-08-16T01:04:28.967Z,100.00
2022-08-16T01:07:18.643Z,100.00
2022-08-16T01:10:16.777Z,100.00
2022-08-16T01:13:12.485Z,100.00
2022-08-16T01:16:10.274Z,100.00
2022-08-16T01:19:02.972Z,100.00
2022-08-16T01:21:57.606Z,100.00
2022-08-16T01:25:09.907Z,100.00
2022-08-16T01:28:00.523Z,100.00
2022-08-16T01:30:54.148Z,100.00
2022-08-16T01:33:44.692Z,100.00
2022-08-16T01:36:34.366Z,100.00
2022-08-16T01:39:22.989Z,100.00
2022-08-16T01:42:13.218Z,100.00
2022-08-16T01:45:01.691Z,100.00
2022-08-16T01:47:52.287Z,100.00
2022-08-16T01:51:09.217Z,100.00
2022-08-16T01:53:55.314Z,100.00
2022-08-16T01:56:49.463Z,100.00
2022-08-16T01:59:40.709Z,100.00
2022-08-16T02:02:33.854Z,100.00
2022-08-16T02:05:31.063Z,100.00
2022-08-16T02:08:33.429Z,100.00
2022-08-16T02:11:24.778Z,100.00
2022-08-16T02:14:33.255Z,100.00
2022-08-16T02:17:21.715Z,100.00
2022-08-16T02:20:12.434Z,100.00
2022-08-16T02:23:05.922Z,100.00
2022-08-16T02:25:54.956Z,100.00
2022-08-16T02:28:45.270Z,100.00
2022-08-16T02:32:02.560Z,100.00
2022-08-16T02:34:45.492Z,100.00
2022-08-16T02:37:51.308Z,100.00
2022-08-16T02:40:42.480Z,100.00
2022-08-16T02:43:33.424Z,100.00
2022-08-16T02:46:30.112Z,100.00
2022-08-16T02:49:23.288Z,100.00
2022-08-16T02:52:31.908Z,100.00
2022-08-16T02:55:41.158Z,100.00
2022-08-16T02:58:33.346Z,100.00
2022-08-16T03:01:33.807Z,100.00
2022-08-16T03:04:51.165Z,100.00
2022-08-16T03:07:43.926Z,100.00
2022-08-16T03:10:39.711Z,100.00
2022-08-16T03:13:28.277Z,100.00
2022-08-16T03:16:38.526Z,100.00
2022-08-16T03:19:48.690Z,100.00
2022-08-16T03:22:38.137Z,100.00
2022-08-16T03:25:41.114Z,100.00
2022-08-16T03:28:32.844Z,100.00
2022-08-16T03:31:21.251Z,100.00
2022-08-16T03:34:10.003Z,100.00
2022-08-16T03:37:01.915Z,100.00
2022-08-16T03:39:56.453Z,100.00
2022-08-16T03:43:18.444Z,100.00
2022-08-16T03:46:00.681Z,100.00
2022-08-16T03:48:55.122Z,100.00
2022-08-16T03:51:43.929Z,100.00
2022-08-16T03:54:38.545Z,100.00
2022-08-16T03:57:42.191Z,100.00
2022-08-16T04:00:41.716Z,100.00
2022-08-16T04:03:33.195Z,100.00
2022-08-16T04:06:23.251Z,100.00
2022-08-16T04:09:12.630Z,100.00
2022-08-16T04:12:01.272Z,100.00
2022-08-16T04:14:50.834Z,100.00
2022-08-16T04:17:41.442Z,100.00
2022-08-16T04:20:33.966Z,100.00
2022-08-16T04:23:25.955Z,100.00
2022-08-16T04:26:17.223Z,100.00
2022-08-16T04:29:15.019Z,100.00
2022-08-16T04:32:07.860Z,100.00
2022-08-16T04:35:01.197Z,100.00
2022-08-16T04:37:54.201Z,100.00
2022-08-16T04:40:48.557Z,100.00
2022-08-16T04:43:38.800Z,100.00
2022-08-16T04:47:02.749Z,100.00
2022-08-16T04:49:46.029Z,100.00
2022-08-16T04:52:46.666Z,100.00
2022-08-16T04:55:37.725Z,100.00
2022-08-16T04:58:43.901Z,100.00
2022-08-16T05:01:58.992Z,100.00
2022-08-16T05:04:44.516Z,100.00
2022-08-16T05:07:32.777Z,100.00
2022-08-16T05:10:24.939Z,100.00
2022-08-16T05:13:15.520Z,100.00
2022-08-16T05:16:04.977Z,100.00
2022-08-16T05:18:58.332Z,100.00
2022-08-16T05:21:47.226Z,100.00
2022-08-16T05:24:35.234Z,100.00
2022-08-16T05:27:24.445Z,100.00
2022-08-16T05:30:34.688Z,100.00
2022-08-16T05:33:27.312Z,100.00
2022-08-16T05:36:17.202Z,100.00
2022-08-16T05:39:11.810Z,100.00
2022-08-16T05:42:00.379Z,100.00
2022-08-16T05:44:48.470Z,100.00
2022-08-16T05:47:43.423Z,100.00
2022-08-16T05:50:34.251Z,100.00
2022-08-16T05:53:24.314Z,100.00
2022-08-16T05:56:34.084Z,100.00
2022-08-16T05:59:27.576Z,100.00
2022-08-16T06:02:17.323Z,100.00
2022-08-16T06:05:07.317Z,100.00
2022-08-16T06:07:59.781Z,100.00
2022-08-16T06:11:02.581Z,100.00
2022-08-16T06:13:58.977Z,100.00
2022-08-16T06:17:05.535Z,100.00
2022-08-16T06:19:54.328Z,100.00
2022-08-16T06:22:44.835Z,100.00
2022-08-16T06:25:35.994Z,100.00
2022-08-16T06:28:34.990Z,100.00
2022-08-16T06:31:27.582Z,100.00
2022-08-16T06:34:55.135Z,100.00
2022-08-16T06:37:25.863Z,100.00
2022-08-16T06:40:26.874Z,100.00
2022-08-16T06:43:22.108Z,100.00
2022-08-16T06:46:31.922Z,100.00
2022-08-16T06:49:24.284Z,100.00
2022-08-16T06:52:57.278Z,100.00
2022-08-16T06:55:21.867Z,100.00
2022-08-16T06:58:22.024Z,100.00
2022-08-16T07:01:24.334Z,100.00
2022-08-16T07:04:32.427Z,100.00
2022-08-16T07:07:36.244Z,100.00
2022-08-16T07:10:27.013Z,100.00
2022-08-16T07:13:26.672Z,100.00
2022-08-16T07:16:27.885Z,100.00
2022-08-16T07:19:17.095Z,100.00
2022-08-16T07:22:52.843Z,100.00
2022-08-16T07:25:17.139Z,100.00
2022-08-16T07:28:07.105Z,100.00
2022-08-16T07:31:02.592Z,100.00
2022-08-16T07:33:55.057Z,100.00
2022-08-16T07:36:58.131Z,100.00
2022-08-16T07:39:50.617Z,100.00
2022-08-16T07:42:40.048Z,100.00
2022-08-16T07:45:29.822Z,100.00
2022-08-16T07:48:22.523Z,100.00
2022-08-16T07:51:14.333Z,100.00
2022-08-16T07:54:09.742Z,100.00
2022-08-16T07:57:02.391Z,100.00
2022-08-16T07:59:52.035Z,100.00
2022-08-16T08:02:40.732Z,100.00
2022-08-16T08:05:36.961Z,100.00
2022-08-16T08:08:51.701Z,100.00
2022-08-16T08:11:34.819Z,100.00
2022-08-16T08:14:29.637Z,100.00
2022-08-16T08:17:19.095Z,100.00
2022-08-16T08:20:11.794Z,100.00
2022-08-16T08:23:02.386Z,100.00
2022-08-16T08:26:00.349Z,100.00
2022-08-16T08:28:51.038Z,100.00
2022-08-16T08:31:41.725Z,100.00
2022-08-16T08:34:31.854Z,100.00
2022-08-16T08:37:22.014Z,100.00
2022-08-16T08:40:15.693Z,100.00
2022-08-16T08:43:18.768Z,100.00
2022-08-16T08:46:18.154Z,100.00
2022-08-16T08:49:10.037Z,100.00
2022-08-16T08:52:01.954Z,100.00
2022-08-16T08:54:56.164Z,100.00
2022-08-16T08:57:46.822Z,100.00
2022-08-16T09:01:11.321Z,100.00
2022-08-16T09:04:01.665Z,100.00
2022-08-16T09:06:49.972Z,100.00
2022-08-16T09:09:41.285Z,100.00
2022-08-16T09:12:36.223Z,100.00
2022-08-16T09:15:32.630Z,100.00
2022-08-16T09:18:25.083Z,100.00
2022-08-16T09:21:15.261Z,100.00
2022-08-16T09:24:10.026Z,100.00
2022-08-16T09:27:00.557Z,100.00
2022-08-16T09:30:00.469Z,100.00
2022-08-16T09:32:54.121Z,100.00
2022-08-16T09:35:43.045Z,100.00
2022-08-16T09:38:32.821Z,100.00
2022-08-16T09:41:21.179Z,100.00
2022-08-16T09:45:13.092Z,100.00
2022-08-16T09:47:17.543Z,100.00
2022-08-16T09:50:13.675Z,100.00
2022-08-16T09:53:15.346Z,100.00
2022-08-16T09:56:14.825Z,100.00
2022-08-16T09:59:08.721Z,100.00
2022-08-16T10:01:56.984Z,100.00
2022-08-16T10:04:54.573Z,100.00
2022-08-16T10:07:45.417Z,100.00
2022-08-16T10:10:34.260Z,100.00
2022-08-16T10:13:22.425Z,100.00
2022-08-16T10:19:07.608Z,99.74
2022-08-16T10:21:56.801Z,98.04
2022-08-16T10:24:56.181Z,95.53
2022-08-16T10:27:53.271Z,94.77
2022-08-16T10:30:45.340Z,93.96
2022-08-16T10:33:34.754Z,93.74
2022-08-16T10:36:38.703Z,92.46
2022-08-16T10:39:40.753Z,92.12
2022-08-16T10:42:29.918Z,89.82
2022-08-16T10:45:18.730Z,88.36
2022-08-16T10:48:27.748Z,86.68
2022-08-16T10:51:17.123Z,84.03
2022-08-16T10:54:06.594Z,83.36
2022-08-16T10:57:15.034Z,83.32
2022-08-16T11:00:21.311Z,82.64
2022-08-16T11:06:21.535Z,81.81
2022-08-16T11:09:25.486Z,80.45
2022-08-16T11:12:14.731Z,77.44
2022-08-16T11:15:18.606Z,75.24
2022-08-16T11:18:48.584Z,76.11
2022-08-16T11:21:29.110Z,74.02
2022-08-16T11:24:41.558Z,71.41
2022-08-16T11:27:35.400Z,70.45
2022-08-16T11:30:36.860Z,69.96
2022-08-16T11:36:36.667Z,66.38
2022-08-16T11:39:25.670Z,65.57
2022-08-16T11:42:28.224Z,64.29
2022-08-16T11:45:19.801Z,62.77
2022-08-16T11:48:08.342Z,61.11
2022-08-16T11:50:57.405Z,59.40
2022-08-16T11:53:45.495Z,59.21
2022-08-16T11:56:52.050Z,57.52
2022-08-16T11:59:42.502Z,58.18
2022-08-16T12:02:33.054Z,56.90
2022-08-16T12:05:23.626Z,55.24
2022-08-16T12:08:14.456Z,54.96
2022-08-16T12:11:06.907Z,53.22
2022-08-16T12:13:55.384Z,52.33
2022-08-16T12:16:45.754Z,52.76
2022-08-16T12:19:43.550Z,53.71
2022-08-16T12:22:33.902Z,52.79
2022-08-16T12:25:28.282Z,52.10
2022-08-16T12:28:16.712Z,50.54
2022-08-16T12:31:14.200Z,49.91
2022-08-16T12:34:08.795Z,49.54
2022-08-16T12:36:58.160Z,48.46
2022-08-16T12:39:47.156Z,48.57
2022-08-16T12:42:40.955Z,48.11
2022-08-16T12:45:47.204Z,48.37
2022-08-16T12:48:54.427Z,46.54
2022-08-16T12:51:59.788Z,45.69
2022-08-16T12:54:54.956Z,45.45
2022-08-16T12:57:43.874Z,45.70
2022-08-16T13:00:47.942Z,45.36
2022-08-16T13:03:40.782Z,45.63
2022-08-16T13:06:33.421Z,44.82
2022-08-16T13:09:26.365Z,44.91
2022-08-16T13:12:19.234Z,43.93
2022-08-16T13:15:10.579Z,43.50
2022-08-16T13:18:00.246Z,43.67
2022-08-16T13:20:48.537Z,43.40
2022-08-16T13:23:43.425Z,43.20
2022-08-16T13:26:32.317Z,43.21
2022-08-16T13:29:21.053Z,42.81
2022-08-16T13:32:10.625Z,43.00
2022-08-16T13:35:19.451Z,42.36
2022-08-16T13:38:08.936Z,43.20
2022-08-16T13:40:57.823Z,43.03
2022-08-16T13:43:57.570Z,42.98
2022-08-16T13:46:47.628Z,42.77
2022-08-16T13:49:35.950Z,42.54
2022-08-16T13:52:25.006Z,42.04
2022-08-16T13:55:17.573Z,42.04
2022-08-16T13:58:36.778Z,42.39
2022-08-16T14:01:14.817Z,42.53
2022-08-16T14:04:05.331Z,42.76
2022-08-16T14:06:53.550Z,44.52
2022-08-16T14:09:44.805Z,46.76
2022-08-16T14:12:34.088Z,47.08
2022-08-16T14:15:23.065Z,47.71
2022-08-16T14:18:15.799Z,48.45
2022-08-16T14:21:08.648Z,48.27
2022-08-16T14:24:01.933Z,50.02
2022-08-16T14:26:55.893Z,51.55
2022-08-16T14:29:49.496Z,52.51
2022-08-16T14:32:38.258Z,54.49
2022-08-16T14:35:48.139Z,53.90
2022-08-16T14:38:39.520Z,53.65
2022-08-16T14:41:29.439Z,54.99
2022-08-16T14:44:18.060Z,56.19
2022-08-16T14:47:08.496Z,57.18
2022-08-16T14:49:57.000Z,57.37
2022-08-16T14:52:56.611Z,58.47
2022-08-16T14:55:45.604Z,57.97
2022-08-16T14:58:36.910Z,59.05
2022-08-16T15:01:26.670Z,60.23
2022-08-16T15:04:40.336Z,61.39
2022-08-16T15:07:36.134Z,61.79
2022-08-16T15:10:26.749Z,61.59
2022-08-16T15:13:17.940Z,61.94
2022-08-16T15:16:08.127Z,63.82
2022-08-16T15:18:58.600Z,64.17
2022-08-16T15:21:51.889Z,64.74
2022-08-16T15:24:42.733Z,65.70
2022-08-16T15:27:36.046Z,66.67
2022-08-16T15:30:57.272Z,66.83
2022-08-16T15:33:43.403Z,64.22
2022-08-16T15:36:33.123Z,62.47
2022-08-16T15:39:35.413Z,61.53
2022-08-16T15:42:28.771Z,61.72
2022-08-16T15:45:37.718Z,62.26
2022-08-16T15:48:29.158Z,62.44
2022-08-16T15:51:18.024Z,62.58
2022-08-16T15:54:21.540Z,62.42
2022-08-16T15:57:16.153Z,63.33
2022-08-16T16:00:14.602Z,64.34
2022-08-16T16:03:08.683Z,64.97
2022-08-16T16:06:00.334Z,65.69
2022-08-16T16:08:49.720Z,66.36
2022-08-16T16:11:40.435Z,67.01
2022-08-16T16:14:29.460Z,67.95
2022-08-16T16:17:18.988Z,68.74
2022-08-16T16:20:13.789Z,70.02
2022-08-16T16:23:10.717Z,70.71
2022-08-16T16:26:00.353Z,71.76
2022-08-16T16:29:07.571Z,73.05
2022-08-16T16:32:05.207Z,74.24
2022-08-16T16:34:57.256Z,74.78
2022-08-16T16:37:45.947Z,75.35
2022-08-16T16:40:46.316Z,76.97
2022-08-16T16:43:44.457Z,78.07
2022-08-16T16:46:41.108Z,78.52
2022-08-16T16:49:32.786Z,79.36
2022-08-16T16:52:44.148Z,80.71
2022-08-16T16:55:30.017Z,82.73
2022-08-16T16:58:36.816Z,84.06
2022-08-16T17:01:50.146Z,84.71
2022-08-16T17:04:40.049Z,85.81
2022-08-16T17:07:28.229Z,86.07
2022-08-16T17:10:45.907Z,87.40
2022-08-16T17:13:25.936Z,88.09
2022-08-16T17:16:18.427Z,88.44
2022-08-16T17:19:16.140Z,90.06
2022-08-16T17:22:14.248Z,91.19
2022-08-16T17:25:07.483Z,92.23
2022-08-16T17:27:56.768Z,92.83
2022-08-16T17:30:46.647Z,94.00
2022-08-16T17:33:36.947Z,94.84
2022-08-16T17:36:35.833Z,95.47
2022-08-16T17:39:24.849Z,95.65
2022-08-16T17:42:17.331Z,96.22
2022-08-16T17:45:06.727Z,97.26
2022-08-16T17:47:55.230Z,97.71
2022-08-16T17:50:43.846Z,98.29
2022-08-16T17:53:35.504Z,98.86
2022-08-16T17:56:24.024Z,100.00
2022-08-16T17:59:14.121Z,100.00
2022-08-16T18:02:42.669Z,100.00
2022-08-16T18:05:12.394Z,100.00
2022-08-16T18:08:00.677Z,100.00
2022-08-16T18:10:50.433Z,100.00
2022-08-16T18:13:42.335Z,100.00
2022-08-16T18:16:31.120Z,100.00
2022-08-16T18:19:19.603Z,100.00
2022-08-16T18:22:20.365Z,100.00
2022-08-16T18:25:10.274Z,100.00
2022-08-16T18:27:58.546Z,100.00
2022-08-16T18:30:51.044Z,100.00
2022-08-16T18:33:43.566Z,100.00
2022-08-16T18:36:34.043Z,100.00
2022-08-16T18:39:22.760Z,100.00
2022-08-16T18:42:13.814Z,100.00
2022-08-16T18:45:03.786Z,100.00
2022-08-16T18:47:51.950Z,100.00
2022-08-16T18:50:58.869Z,100.00
2022-08-16T18:53:49.787Z,100.00
2022-08-16T18:56:55.139Z,100.00
2022-08-16T18:59:45.892Z,100.00
2022-08-16T19:02:57.507Z,100.00
2022-08-16T19:05:47.592Z,100.00
2022-08-16T19:08:36.061Z,100.00
2022-08-16T19:11:27.738Z,100.00
2022-08-16T19:14:14.741Z,100.00
2022-08-16T19:17:03.472Z,100.00
2022-08-16T19:19:52.135Z,100.00
2022-08-16T19:25:53.176Z,100.00
2022-08-16T19:28:51.365Z,100.00
2022-08-16T19:31:47.218Z,100.00
2022-08-16T19:34:35.295Z,100.00
2022-08-16T19:37:24.172Z,100.00
2022-08-16T19:40:37.292Z,100.00
2022-08-16T19:43:22.570Z,100.00
2022-08-16T19:46:11.408Z,100.00
2022-08-16T19:49:00.168Z,100.00
2022-08-16T19:51:49.171Z,100.00
2022-08-16T19:54:41.060Z,100.00
2022-08-16T19:57:30.349Z,100.00
2022-08-16T20:00:18.719Z,100.00
2022-08-16T20:03:12.488Z,100.00
2022-08-16T20:06:01.126Z,100.00
2022-08-16T20:08:49.492Z,100.00
2022-08-16T20:11:37.994Z,100.00
2022-08-16T20:14:26.804Z,100.00
2022-08-16T20:17:15.388Z,100.00
2022-08-16T20:20:04.375Z,100.00
2022-08-16T20:22:55.178Z,100.00
2022-08-16T20:25:49.700Z,100.00
2022-08-16T20:28:52.990Z,100.00
2022-08-16T20:31:43.119Z,100.00
2022-08-16T20:34:31.686Z,100.00
2022-08-16T20:37:21.631Z,100.00
2022-08-16T20:40:27.826Z,100.00
2022-08-16T20:43:20.414Z,100.00
2022-08-16T20:46:08.960Z,100.00
2022-08-16T20:48:57.723Z,100.00
2022-08-16T20:51:49.395Z,100.00
2022-08-16T20:54:40.982Z,100.00
2022-08-16T20:57:29.370Z,100.00
2022-08-16T21:00:18.565Z,100.00
2022-08-16T21:03:08.963Z,100.00
2022-08-16T21:05:58.066Z,100.00
2022-08-16T21:08:53.567Z,100.00
2022-08-16T21:11:42.139Z,100.00
2022-08-16T21:14:33.467Z,100.00
2022-08-16T21:17:21.825Z,100.00
2022-08-16T21:20:12.341Z,100.00
2022-08-16T21:23:02.969Z,100.00
2022-08-16T21:25:58.771Z,100.00
2022-08-16T21:28:48.173Z,100.00
2022-08-16T21:31:36.360Z,100.00
2022-08-16T21:34:25.303Z,100.00
2022-08-16T21:37:15.545Z,100.00
2022-08-16T21:40:05.627Z,100.00
2022-08-16T21:42:54.350Z,100.00
2022-08-16T21:45:44.473Z,100.00
2022-08-16T21:48:33.540Z,100.00
2022-08-16T21:51:23.008Z,100.00
2022-08-16T21:54:11.694Z,100.00
2022-08-16T21:57:00.070Z,100.00
2022-08-16T21:59:48.674Z,100.00
2022-08-16T22:02:38.943Z,100.00
2022-08-16T22:05:27.665Z,100.00
2022-08-16T22:08:16.281Z,100.00
2022-08-16T22:11:09.189Z,100.00
2022-08-16T22:13:59.469Z,100.00
2022-08-16T22:16:47.885Z,100.00
2022-08-16T22:19:36.257Z,100.00
2022-08-16T22:22:25.172Z,100.00
2022-08-16T22:25:23.427Z,100.00
2022-08-16T22:28:13.298Z,100.00
2022-08-16T22:31:02.283Z,100.00
2022-08-16T22:33:50.747Z,100.00
2022-08-16T22:36:39.600Z,100.00
2022-08-16T22:39:27.390Z,100.00
2022-08-16T22:42:15.735Z,100.00
2022-08-16T22:45:08.075Z,100.00
2022-08-16T22:47:56.467Z,100.00
2022-08-16T22:50:44.728Z,100.00
2022-08-16T22:53:33.333Z,100.00
2022-08-16T22:56:21.937Z,100.00
2022-08-16T22:59:10.600Z,100.00
2022-08-16T23:01:59.077Z,100.00
2022-08-16T23:04:47.239Z,100.00
2022-08-16T23:07:35.474Z,100.00
2022-08-16T23:10:23.624Z,100.00
2022-08-16T23:13:13.556Z,100.00
2022-08-16T23:16:11.436Z,100.00
2022-08-16T23:19:01.544Z,100.00
2022-08-16T23:21:49.797Z,100.00
2022-08-16T23:24:55.824Z,100.00
2022-08-16T23:27:45.066Z,100.00
2022-08-16T23:30:36.209Z,100.00
2022-08-16T23:33:29.745Z,100.00
2022-08-16T23:36:18.474Z,100.00
2022-08-16T23:39:07.305Z,100.00
2022-08-16T23:41:56.124Z,100.00
2022-08-16T23:44:58.061Z,100.00
2022-08-16T23:47:47.471Z,100.00
2022-08-16T23:50:39.143Z,100.00
2022-08-16T23:53:29.185Z,100.00
2022-08-16T23:56:19.929Z,100.00
2022-08-16T23:59:08.442Z,100.00
